Hdms Esbern Snare — OUFB — position and weather

sailwx.info

Track history (hours):
 
Tides and Currents Weather Stations Pressure Air Temp Water Temp Dewpoint Dewpoint Depression Visibility Wind Speed Wind Dir Waves Ship Positions

Hdms Esbern Snare

Last reported at 2016-Dec-07 08:15 UTC. Time now 2016-Dec-08 16:12 UTC.
Position N 56°05' E 011°27'.

Length 137 m.

Type: Military. MMSI: 36699999.

Date/timePositionNaut miles runAvg speedWind from/ knotsBaromVisibWave heightAir tempDewpointWater temp
2016-Dec-07 08:15N 56°05' E 011°27'2 1.0
2016-Dec-07 06:32N 56°04' E 011°25'9 4.1
2016-Dec-07 04:25N 56°05' E 011°09'6 0.8
2016-Dec-06 20:07N 56°00' E 011°03'9 1.2
2016-Dec-06 12:18N 56°04' E 011°18'1 0.4
2016-Dec-06 10:03N 56°03' E 011°19'5 2.9
2016-Dec-06 08:18N 56°08' E 011°19'52 7.5
2016-Dec-06 01:27N 56°58' E 011°43'1415.3
2016-Dec-06 00:34N 57°11' E 011°35'1515.1
2016-Dec-05 23:33N 57°25' E 011°25'1312.7
2016-Dec-05 22:33N 57°30' E 011°03'1514.5
2016-Dec-05 21:33N 57°25' E 010°37'7 7.0
2016-Dec-05 20:33N 57°30' E 010°46'1413.8
2016-Dec-05 19:33N 57°42' E 010°58'8 7.7
2016-Dec-05 18:33N 57°35' E 011°01'5 4.7
2016-Dec-05 17:33N 57°31' E 011°06'5 5.4
2016-Dec-05 16:34N 57°28' E 010°58'1212.0
2016-Dec-05 15:33N 57°22' E 010°39'3 3.4
2016-Dec-05 14:33N 57°25' E 010°38'8 7.7
2016-Dec-05 13:32N 57°17' E 010°40'1 1.2
2016-Dec-05 12:34N 57°17' E 010°42'1 0.7
2016-Dec-05 11:18N 57°17' E 010°41'911.5
2016-Dec-05 10:33N 57°25' E 010°35'  
Track history (hours):
 
Tides and Currents Weather Stations Pressure Air Temp Water Temp Dewpoint Dewpoint Depression Visibility Wind Speed Wind Dir Waves Ship Positions

Hdms Esbern Snare

Last reported at 2016-Dec-07 08:15 UTC. Time now 2016-Dec-08 16:12 UTC.
Position N 56°05' E 011°27'.

Length 137 m.

Type: Military. MMSI: 36699999.

Date/timePositionNaut miles runAvg speedWind from/ knotsBaromVisibWave heightAir tempDewpointWater temp
2016-Dec-07 08:15N 56°05' E 011°27'2 1.0
2016-Dec-07 06:32N 56°04' E 011°25'9 4.1
2016-Dec-07 04:25N 56°05' E 011°09'6 0.8
2016-Dec-06 20:07N 56°00' E 011°03'9 1.2
2016-Dec-06 12:18N 56°04' E 011°18'1 0.4
2016-Dec-06 10:03N 56°03' E 011°19'5 2.9
2016-Dec-06 08:18N 56°08' E 011°19'52 7.5
2016-Dec-06 01:27N 56°58' E 011°43'1415.3
2016-Dec-06 00:34N 57°11' E 011°35'1515.1
2016-Dec-05 23:33N 57°25' E 011°25'1312.7
2016-Dec-05 22:33N 57°30' E 011°03'1514.5
2016-Dec-05 21:33N 57°25' E 010°37'7 7.0
2016-Dec-05 20:33N 57°30' E 010°46'1413.8
2016-Dec-05 19:33N 57°42' E 010°58'8 7.7
2016-Dec-05 18:33N 57°35' E 011°01'5 4.7
2016-Dec-05 17:33N 57°31' E 011°06'5 5.4
2016-Dec-05 16:34N 57°28' E 010°58'1212.0
2016-Dec-05 15:33N 57°22' E 010°39'3 3.4
2016-Dec-05 14:33N 57°25' E 010°38'8 7.7
2016-Dec-05 13:32N 57°17' E 010°40'1 1.2
2016-Dec-05 12:34N 57°17' E 010°42'1 0.7
2016-Dec-05 11:18N 57°17' E 010°41'911.5
2016-Dec-05 10:33N 57°25' E 010°35'  

Dump ship's entire track history